sensor_id;sensor_type;location;lat;lon;timestamp;P1;durP1;ratioP1;P2;durP2;ratioP2
75986;SDS011;75291;44.670;37.810;2024-02-21T00:00:21;20.60;;;10.02;;
75986;SDS011;75291;44.670;37.810;2024-02-21T00:01:25;19.35;;;9.15;;
75986;SDS011;75291;44.670;37.810;2024-02-21T00:02:28;23.30;;;9.70;;
75986;SDS011;75291;44.670;37.810;2024-02-21T00:03:31;17.08;;;9.52;;
75986;SDS011;75291;44.670;37.810;2024-02-21T00:04:35;18.70;;;9.10;;
75986;SDS011;75291;44.670;37.810;2024-02-21T00:05:39;16.73;;;8.77;;
75986;SDS011;75291;44.670;37.810;2024-02-21T00:06:43;18.95;;;9.30;;
75986;SDS011;75291;44.670;37.810;2024-02-21T00:07:47;17.33;;;9.82;;
75986;SDS011;75291;44.670;37.810;2024-02-21T00:08:50;16.45;;;9.57;;
75986;SDS011;75291;44.670;37.810;2024-02-21T00:09:53;17.55;;;9.00;;
75986;SDS011;75291;44.670;37.810;2024-02-21T00:10:59;15.13;;;8.90;;
75986;SDS011;75291;44.670;37.810;2024-02-21T00:12:03;18.67;;;9.88;;
75986;SDS011;75291;44.670;37.810;2024-02-21T00:13:08;18.67;;;9.98;;
75986;SDS011;75291;44.670;37.810;2024-02-21T00:14:11;16.77;;;9.00;;
75986;SDS011;75291;44.670;37.810;2024-02-21T00:15:14;20.38;;;9.52;;
75986;SDS011;75291;44.670;37.810;2024-02-21T00:16:18;19.52;;;10.00;;
75986;SDS011;75291;44.670;37.810;2024-02-21T00:17:21;17.88;;;9.25;;
75986;SDS011;75291;44.670;37.810;2024-02-21T00:18:26;19.35;;;9.60;;
75986;SDS011;75291;44.670;37.810;2024-02-21T00:19:29;21.08;;;9.55;;
75986;SDS011;75291;44.670;37.810;2024-02-21T00:20:33;18.55;;;9.38;;
75986;SDS011;75291;44.670;37.810;2024-02-21T00:21:36;15.80;;;9.63;;
75986;SDS011;75291;44.670;37.810;2024-02-21T00:22:40;16.65;;;9.73;;
75986;SDS011;75291;44.670;37.810;2024-02-21T00:23:44;18.38;;;9.10;;
75986;SDS011;75291;44.670;37.810;2024-02-21T00:24:48;18.45;;;10.10;;
75986;SDS011;75291;44.670;37.810;2024-02-21T00:25:52;20.00;;;9.18;;
75986;SDS011;75291;44.670;37.810;2024-02-21T00:26:55;15.45;;;9.00;;
75986;SDS011;75291;44.670;37.810;2024-02-21T00:27:59;17.23;;;9.73;;
75986;SDS011;75291;44.670;37.810;2024-02-21T00:29:03;18.13;;;9.73;;
75986;SDS011;75291;44.670;37.810;2024-02-21T00:30:07;16.60;;;8.40;;
75986;SDS011;75291;44.670;37.810;2024-02-21T00:31:12;17.58;;;9.88;;
75986;SDS011;75291;44.670;37.810;2024-02-21T00:32:15;17.70;;;9.63;;
75986;SDS011;75291;44.670;37.810;2024-02-21T00:33:19;20.70;;;9.63;;
75986;SDS011;75291;44.670;37.810;2024-02-21T00:34:22;18.27;;;10.20;;
75986;SDS011;75291;44.670;37.810;2024-02-21T00:35:26;18.85;;;8.98;;
75986;SDS011;75291;44.670;37.810;2024-02-21T00:36:29;17.80;;;9.30;;
75986;SDS011;75291;44.670;37.810;2024-02-21T00:37:33;20.30;;;10.07;;
75986;SDS011;75291;44.670;37.810;2024-02-21T00:38:37;21.25;;;9.55;;
75986;SDS011;75291;44.670;37.810;2024-02-21T00:39:41;21.00;;;9.98;;
75986;SDS011;75291;44.670;37.810;2024-02-21T00:40:45;18.80;;;9.82;;
75986;SDS011;75291;44.670;37.810;2024-02-21T00:41:49;20.08;;;9.52;;
75986;SDS011;75291;44.670;37.810;2024-02-21T00:42:52;23.17;;;10.60;;
75986;SDS011;75291;44.670;37.810;2024-02-21T00:43:56;19.80;;;9.98;;
75986;SDS011;75291;44.670;37.810;2024-02-21T00:44:59;18.60;;;9.52;;
75986;SDS011;75291;44.670;37.810;2024-02-21T00:46:05;21.13;;;10.23;;
75986;SDS011;75291;44.670;37.810;2024-02-21T00:47:10;21.90;;;10.18;;
75986;SDS011;75291;44.670;37.810;2024-02-21T00:48:13;22.65;;;10.13;;
75986;SDS011;75291;44.670;37.810;2024-02-21T00:49:17;19.80;;;10.07;;
75986;SDS011;75291;44.670;37.810;2024-02-21T00:50:21;19.90;;;10.60;;
75986;SDS011;75291;44.670;37.810;2024-02-21T00:51:24;18.48;;;9.80;;
75986;SDS011;75291;44.670;37.810;2024-02-21T00:52:27;18.85;;;10.13;;
75986;SDS011;75291;44.670;37.810;2024-02-21T00:53:30;23.70;;;12.20;;
75986;SDS011;75291;44.670;37.810;2024-02-21T00:54:34;20.50;;;10.30;;
75986;SDS011;75291;44.670;37.810;2024-02-21T00:55:39;20.58;;;10.85;;
75986;SDS011;75291;44.670;37.810;2024-02-21T00:56:43;19.20;;;9.65;;
75986;SDS011;75291;44.670;37.810;2024-02-21T00:57:47;22.55;;;11.23;;
75986;SDS011;75291;44.670;37.810;2024-02-21T00:58:50;18.02;;;9.52;;
75986;SDS011;75291;44.670;37.810;2024-02-21T00:59:53;23.83;;;11.80;;
75986;SDS011;75291;44.670;37.810;2024-02-21T01:00:56;20.60;;;11.02;;
75986;SDS011;75291;44.670;37.810;2024-02-21T01:02:00;20.38;;;11.25;;
75986;SDS011;75291;44.670;37.810;2024-02-21T01:03:03;22.95;;;10.88;;
75986;SDS011;75291;44.670;37.810;2024-02-21T01:04:06;22.75;;;10.23;;
75986;SDS011;75291;44.670;37.810;2024-02-21T01:05:10;21.65;;;10.57;;
75986;SDS011;75291;44.670;37.810;2024-02-21T01:06:14;19.65;;;10.48;;
75986;SDS011;75291;44.670;37.810;2024-02-21T01:07:17;22.55;;;10.80;;
75986;SDS011;75291;44.670;37.810;2024-02-21T01:08:21;22.08;;;11.82;;
75986;SDS011;75291;44.670;37.810;2024-02-21T01:09:24;25.05;;;11.00;;
75986;SDS011;75291;44.670;37.810;2024-02-21T01:10:28;25.00;;;11.73;;
75986;SDS011;75291;44.670;37.810;2024-02-21T01:11:31;19.35;;;9.52;;
75986;SDS011;75291;44.670;37.810;2024-02-21T01:12:35;21.58;;;11.10;;
75986;SDS011;75291;44.670;37.810;2024-02-21T01:13:39;24.05;;;11.88;;
75986;SDS011;75291;44.670;37.810;2024-02-21T01:14:43;22.92;;;10.98;;
75986;SDS011;75291;44.670;37.810;2024-02-21T01:15:48;22.42;;;10.93;;
75986;SDS011;75291;44.670;37.810;2024-02-21T01:16:51;29.52;;;11.52;;
75986;SDS011;75291;44.670;37.810;2024-02-21T01:17:55;24.90;;;11.80;;
75986;SDS011;75291;44.670;37.810;2024-02-21T01:18:58;20.67;;;10.48;;
75986;SDS011;75291;44.670;37.810;2024-02-21T01:20:02;20.67;;;11.02;;
75986;SDS011;75291;44.670;37.810;2024-02-21T01:21:08;26.40;;;12.02;;
75986;SDS011;75291;44.670;37.810;2024-02-21T01:22:12;22.63;;;10.15;;
75986;SDS011;75291;44.670;37.810;2024-02-21T01:23:17;24.83;;;12.32;;
75986;SDS011;75291;44.670;37.810;2024-02-21T01:24:21;26.77;;;11.55;;
75986;SDS011;75291;44.670;37.810;2024-02-21T01:25:25;27.50;;;12.27;;
75986;SDS011;75291;44.670;37.810;2024-02-21T01:26:28;25.63;;;11.68;;
75986;SDS011;75291;44.670;37.810;2024-02-21T01:27:32;21.42;;;11.05;;
75986;SDS011;75291;44.670;37.810;2024-02-21T01:28:35;23.25;;;10.93;;
75986;SDS011;75291;44.670;37.810;2024-02-21T01:29:40;27.15;;;12.98;;
75986;SDS011;75291;44.670;37.810;2024-02-21T01:30:43;25.05;;;10.75;;
75986;SDS011;75291;44.670;37.810;2024-02-21T01:31:46;22.80;;;10.68;;
75986;SDS011;75291;44.670;37.810;2024-02-21T01:32:50;25.45;;;12.13;;
75986;SDS011;75291;44.670;37.810;2024-02-21T01:33:54;21.08;;;11.20;;
75986;SDS011;75291;44.670;37.810;2024-02-21T01:34:58;24.35;;;12.25;;
75986;SDS011;75291;44.670;37.810;2024-02-21T01:36:02;23.85;;;11.27;;
75986;SDS011;75291;44.670;37.810;2024-02-21T01:37:06;28.50;;;12.65;;
75986;SDS011;75291;44.670;37.810;2024-02-21T01:38:12;26.08;;;11.70;;
75986;SDS011;75291;44.670;37.810;2024-02-21T01:39:17;23.23;;;12.25;;
75986;SDS011;75291;44.670;37.810;2024-02-21T01:40:20;23.38;;;12.43;;
75986;SDS011;75291;44.670;37.810;2024-02-21T01:41:25;29.35;;;12.38;;
75986;SDS011;75291;44.670;37.810;2024-02-21T01:42:28;23.15;;;11.25;;
75986;SDS011;75291;44.670;37.810;2024-02-21T01:43:31;27.55;;;11.48;;
75986;SDS011;75291;44.670;37.810;2024-02-21T01:44:35;25.70;;;12.30;;
75986;SDS011;75291;44.670;37.810;2024-02-21T01:45:41;30.45;;;12.27;;
75986;SDS011;75291;44.670;37.810;2024-02-21T01:46:44;25.58;;;11.75;;
75986;SDS011;75291;44.670;37.810;2024-02-21T01:47:48;26.48;;;11.90;;
75986;SDS011;75291;44.670;37.810;2024-02-21T01:48:53;23.40;;;12.05;;
75986;SDS011;75291;44.670;37.810;2024-02-21T01:49:59;21.40;;;11.40;;
75986;SDS011;75291;44.670;37.810;2024-02-21T01:51:05;27.40;;;11.70;;
75986;SDS011;75291;44.670;37.810;2024-02-21T01:52:09;24.83;;;12.00;;
75986;SDS011;75291;44.670;37.810;2024-02-21T01:53:32;25.95;;;13.02;;
75986;SDS011;75291;44.670;37.810;2024-02-21T01:54:39;23.73;;;12.15;;
75986;SDS011;75291;44.670;37.810;2024-02-21T01:55:44;24.30;;;11.18;;
75986;SDS011;75291;44.670;37.810;2024-02-21T01:56:50;27.52;;;11.75;;
75986;SDS011;75291;44.670;37.810;2024-02-21T01:57:55;25.17;;;11.70;;
75986;SDS011;75291;44.670;37.810;2024-02-21T01:58:58;27.35;;;12.02;;
75986;SDS011;75291;44.670;37.810;2024-02-21T02:00:03;21.90;;;11.70;;
75986;SDS011;75291;44.670;37.810;2024-02-21T02:01:11;28.30;;;12.60;;
75986;SDS011;75291;44.670;37.810;2024-02-21T02:02:15;29.45;;;14.15;;
75986;SDS011;75291;44.670;37.810;2024-02-21T02:03:20;28.95;;;13.45;;
75986;SDS011;75291;44.670;37.810;2024-02-21T02:04:24;30.20;;;14.38;;
75986;SDS011;75291;44.670;37.810;2024-02-21T02:05:29;29.00;;;13.88;;
75986;SDS011;75291;44.670;37.810;2024-02-21T02:06:32;27.10;;;12.57;;
75986;SDS011;75291;44.670;37.810;2024-02-21T02:07:37;28.85;;;12.25;;
75986;SDS011;75291;44.670;37.810;2024-02-21T02:08:40;26.27;;;11.93;;
75986;SDS011;75291;44.670;37.810;2024-02-21T02:09:44;23.70;;;11.77;;
75986;SDS011;75291;44.670;37.810;2024-02-21T02:10:47;26.92;;;12.80;;
75986;SDS011;75291;44.670;37.810;2024-02-21T02:11:51;26.88;;;11.95;;
75986;SDS011;75291;44.670;37.810;2024-02-21T02:12:54;25.55;;;11.73;;
75986;SDS011;75291;44.670;37.810;2024-02-21T02:14:00;27.23;;;11.98;;
75986;SDS011;75291;44.670;37.810;2024-02-21T02:15:04;25.92;;;12.30;;
75986;SDS011;75291;44.670;37.810;2024-02-21T02:16:16;25.33;;;12.65;;
75986;SDS011;75291;44.670;37.810;2024-02-21T02:17:20;24.00;;;11.45;;
75986;SDS011;75291;44.670;37.810;2024-02-21T02:18:23;28.90;;;12.88;;
75986;SDS011;75291;44.670;37.810;2024-02-21T02:19:27;27.75;;;12.68;;
75986;SDS011;75291;44.670;37.810;2024-02-21T02:20:30;26.08;;;12.55;;
75986;SDS011;75291;44.670;37.810;2024-02-21T02:21:34;30.25;;;13.88;;
75986;SDS011;75291;44.670;37.810;2024-02-21T02:22:42;27.20;;;13.18;;
75986;SDS011;75291;44.670;37.810;2024-02-21T02:23:48;27.85;;;12.35;;
75986;SDS011;75291;44.670;37.810;2024-02-21T02:24:52;33.40;;;17.58;;
75986;SDS011;75291;44.670;37.810;2024-02-21T02:25:55;46.25;;;26.05;;
75986;SDS011;75291;44.670;37.810;2024-02-21T02:26:59;34.72;;;18.65;;
75986;SDS011;75291;44.670;37.810;2024-02-21T02:28:03;31.20;;;15.95;;
75986;SDS011;75291;44.670;37.810;2024-02-21T02:29:07;27.65;;;13.25;;
75986;SDS011;75291;44.670;37.810;2024-02-21T02:30:12;34.03;;;16.13;;
75986;SDS011;75291;44.670;37.810;2024-02-21T02:31:16;33.28;;;14.68;;
75986;SDS011;75291;44.670;37.810;2024-02-21T02:32:20;32.28;;;15.50;;
75986;SDS011;75291;44.670;37.810;2024-02-21T02:33:24;33.80;;;15.63;;
75986;SDS011;75291;44.670;37.810;2024-02-21T02:34:27;31.52;;;15.02;;
75986;SDS011;75291;44.670;37.810;2024-02-21T02:35:31;30.92;;;14.25;;
75986;SDS011;75291;44.670;37.810;2024-02-21T02:36:35;32.38;;;13.80;;
75986;SDS011;75291;44.670;37.810;2024-02-21T02:37:48;29.45;;;13.52;;
75986;SDS011;75291;44.670;37.810;2024-02-21T02:38:52;30.77;;;12.60;;
75986;SDS011;75291;44.670;37.810;2024-02-21T02:39:56;27.10;;;12.55;;
75986;SDS011;75291;44.670;37.810;2024-02-21T02:40:59;25.92;;;12.40;;
75986;SDS011;75291;44.670;37.810;2024-02-21T02:42:03;25.90;;;12.43;;
75986;SDS011;75291;44.670;37.810;2024-02-21T02:43:07;25.83;;;12.07;;
75986;SDS011;75291;44.670;37.810;2024-02-21T02:44:11;26.05;;;11.85;;
75986;SDS011;75291;44.670;37.810;2024-02-21T02:45:17;28.27;;;12.70;;
75986;SDS011;75291;44.670;37.810;2024-02-21T02:46:21;26.92;;;12.45;;
75986;SDS011;75291;44.670;37.810;2024-02-21T02:47:24;26.73;;;12.13;;
75986;SDS011;75291;44.670;37.810;2024-02-21T02:48:27;27.92;;;11.38;;
75986;SDS011;75291;44.670;37.810;2024-02-21T02:49:34;26.50;;;12.00;;
75986;SDS011;75291;44.670;37.810;2024-02-21T02:50:38;27.63;;;12.52;;
75986;SDS011;75291;44.670;37.810;2024-02-21T02:51:44;32.30;;;13.70;;
75986;SDS011;75291;44.670;37.810;2024-02-21T02:52:48;27.33;;;12.43;;
75986;SDS011;75291;44.670;37.810;2024-02-21T02:53:51;26.27;;;12.80;;
75986;SDS011;75291;44.670;37.810;2024-02-21T02:54:55;28.60;;;12.95;;
75986;SDS011;75291;44.670;37.810;2024-02-21T02:55:59;28.00;;;12.77;;
75986;SDS011;75291;44.670;37.810;2024-02-21T02:57:03;27.15;;;12.43;;
75986;SDS011;75291;44.670;37.810;2024-02-21T02:58:08;26.75;;;12.43;;
75986;SDS011;75291;44.670;37.810;2024-02-21T02:59:12;27.10;;;13.02;;
75986;SDS011;75291;44.670;37.810;2024-02-21T03:00:15;25.58;;;13.25;;
75986;SDS011;75291;44.670;37.810;2024-02-21T03:01:19;28.17;;;12.32;;
75986;SDS011;75291;44.670;37.810;2024-02-21T03:02:22;32.22;;;13.02;;
75986;SDS011;75291;44.670;37.810;2024-02-21T03:03:26;30.65;;;15.27;;
75986;SDS011;75291;44.670;37.810;2024-02-21T03:04:30;31.58;;;14.07;;
75986;SDS011;75291;44.670;37.810;2024-02-21T03:05:34;31.73;;;14.65;;
75986;SDS011;75291;44.670;37.810;2024-02-21T03:06:38;29.75;;;15.13;;
75986;SDS011;75291;44.670;37.810;2024-02-21T03:07:41;31.60;;;14.70;;
75986;SDS011;75291;44.670;37.810;2024-02-21T03:08:45;36.40;;;16.55;;
75986;SDS011;75291;44.670;37.810;2024-02-21T03:09:49;39.47;;;18.02;;
75986;SDS011;75291;44.670;37.810;2024-02-21T03:10:52;40.63;;;17.55;;
75986;SDS011;75291;44.670;37.810;2024-02-21T03:11:56;33.45;;;16.35;;
75986;SDS011;75291;44.670;37.810;2024-02-21T03:13:05;34.60;;;14.68;;
75986;SDS011;75291;44.670;37.810;2024-02-21T03:14:08;33.58;;;15.35;;
75986;SDS011;75291;44.670;37.810;2024-02-21T03:15:12;35.65;;;15.65;;
75986;SDS011;75291;44.670;37.810;2024-02-21T03:16:17;35.63;;;15.88;;
75986;SDS011;75291;44.670;37.810;2024-02-21T03:17:21;36.17;;;15.15;;
75986;SDS011;75291;44.670;37.810;2024-02-21T03:18:24;39.22;;;15.82;;
75986;SDS011;75291;44.670;37.810;2024-02-21T03:19:28;34.60;;;15.55;;
75986;SDS011;75291;44.670;37.810;2024-02-21T03:20:31;36.05;;;15.90;;
75986;SDS011;75291;44.670;37.810;2024-02-21T03:21:35;37.85;;;15.85;;
75986;SDS011;75291;44.670;37.810;2024-02-21T03:22:39;34.08;;;15.27;;
75986;SDS011;75291;44.670;37.810;2024-02-21T03:23:43;34.90;;;15.30;;
75986;SDS011;75291;44.670;37.810;2024-02-21T03:24:47;34.30;;;14.52;;
75986;SDS011;75291;44.670;37.810;2024-02-21T03:25:50;34.05;;;14.73;;
75986;SDS011;75291;44.670;37.810;2024-02-21T03:26:54;30.83;;;14.30;;
75986;SDS011;75291;44.670;37.810;2024-02-21T03:27:57;34.30;;;14.77;;
75986;SDS011;75291;44.670;37.810;2024-02-21T03:29:01;30.85;;;14.57;;
75986;SDS011;75291;44.670;37.810;2024-02-21T03:30:05;28.17;;;13.90;;
75986;SDS011;75291;44.670;37.810;2024-02-21T03:31:12;27.65;;;13.90;;
75986;SDS011;75291;44.670;37.810;2024-02-21T03:32:18;32.30;;;15.15;;
75986;SDS011;75291;44.670;37.810;2024-02-21T03:33:22;34.97;;;16.05;;
75986;SDS011;75291;44.670;37.810;2024-02-21T03:34:26;35.40;;;14.82;;
75986;SDS011;75291;44.670;37.810;2024-02-21T03:35:30;33.38;;;15.15;;
75986;SDS011;75291;44.670;37.810;2024-02-21T03:36:34;33.28;;;14.93;;
75986;SDS011;75291;44.670;37.810;2024-02-21T03:37:38;35.83;;;15.00;;
75986;SDS011;75291;44.670;37.810;2024-02-21T03:38:44;33.92;;;15.30;;
75986;SDS011;75291;44.670;37.810;2024-02-21T03:39:48;33.97;;;15.10;;
75986;SDS011;75291;44.670;37.810;2024-02-21T03:40:51;36.95;;;15.70;;
75986;SDS011;75291;44.670;37.810;2024-02-21T03:41:55;40.80;;;15.68;;
75986;SDS011;75291;44.670;37.810;2024-02-21T03:42:58;31.73;;;15.30;;
75986;SDS011;75291;44.670;37.810;2024-02-21T03:44:02;35.08;;;14.38;;
75986;SDS011;75291;44.670;37.810;2024-02-21T03:45:05;35.88;;;15.48;;
75986;SDS011;75291;44.670;37.810;2024-02-21T03:46:09;33.60;;;15.02;;
75986;SDS011;75291;44.670;37.810;2024-02-21T03:47:13;34.30;;;14.13;;
75986;SDS011;75291;44.670;37.810;2024-02-21T03:48:16;35.03;;;14.20;;
75986;SDS011;75291;44.670;37.810;2024-02-21T03:49:20;31.05;;;14.05;;
75986;SDS011;75291;44.670;37.810;2024-02-21T03:50:23;34.00;;;15.02;;
75986;SDS011;75291;44.670;37.810;2024-02-21T03:51:28;33.42;;;15.15;;
75986;SDS011;75291;44.670;37.810;2024-02-21T03:52:31;34.83;;;15.57;;
75986;SDS011;75291;44.670;37.810;2024-02-21T03:53:36;31.58;;;14.13;;
75986;SDS011;75291;44.670;37.810;2024-02-21T03:54:39;33.58;;;14.65;;
75986;SDS011;75291;44.670;37.810;2024-02-21T03:55:43;35.80;;;14.43;;
75986;SDS011;75291;44.670;37.810;2024-02-21T03:56:46;37.88;;;15.35;;
75986;SDS011;75291;44.670;37.810;2024-02-21T03:57:52;34.20;;;15.10;;
75986;SDS011;75291;44.670;37.810;2024-02-21T03:58:56;34.97;;;16.13;;
75986;SDS011;75291;44.670;37.810;2024-02-21T04:00:10;41.75;;;15.65;;
75986;SDS011;75291;44.670;37.810;2024-02-21T04:01:15;35.03;;;16.52;;
75986;SDS011;75291;44.670;37.810;2024-02-21T04:02:19;32.40;;;14.95;;
75986;SDS011;75291;44.670;37.810;2024-02-21T04:03:23;33.63;;;14.60;;
75986;SDS011;75291;44.670;37.810;2024-02-21T04:04:26;36.80;;;15.98;;
75986;SDS011;75291;44.670;37.810;2024-02-21T04:05:29;35.55;;;15.05;;
75986;SDS011;75291;44.670;37.810;2024-02-21T04:06:33;31.52;;;14.45;;
75986;SDS011;75291;44.670;37.810;2024-02-21T04:07:37;35.88;;;14.00;;
75986;SDS011;75291;44.670;37.810;2024-02-21T04:08:41;29.13;;;13.70;;
75986;SDS011;75291;44.670;37.810;2024-02-21T04:09:44;32.35;;;13.93;;
75986;SDS011;75291;44.670;37.810;2024-02-21T04:10:48;35.97;;;14.70;;
75986;SDS011;75291;44.670;37.810;2024-02-21T04:11:52;38.65;;;15.05;;
75986;SDS011;75291;44.670;37.810;2024-02-21T04:12:57;33.60;;;15.10;;
75986;SDS011;75291;44.670;37.810;2024-02-21T04:14:01;36.88;;;15.32;;
75986;SDS011;75291;44.670;37.810;2024-02-21T04:15:05;38.80;;;15.48;;
75986;SDS011;75291;44.670;37.810;2024-02-21T04:16:09;36.90;;;15.27;;
75986;SDS011;75291;44.670;37.810;2024-02-21T04:17:16;39.75;;;15.00;;
75986;SDS011;75291;44.670;37.810;2024-02-21T04:18:20;36.72;;;15.18;;
75986;SDS011;75291;44.670;37.810;2024-02-21T04:19:25;37.60;;;15.30;;
75986;SDS011;75291;44.670;37.810;2024-02-21T04:20:28;39.78;;;14.93;;
75986;SDS011;75291;44.670;37.810;2024-02-21T04:21:34;37.35;;;15.25;;
75986;SDS011;75291;44.670;37.810;2024-02-21T04:22:44;38.80;;;15.77;;
75986;SDS011;75291;44.670;37.810;2024-02-21T04:23:48;40.20;;;16.10;;
75986;SDS011;75291;44.670;37.810;2024-02-21T04:24:52;40.88;;;16.00;;
75986;SDS011;75291;44.670;37.810;2024-02-21T04:25:57;43.30;;;15.88;;
75986;SDS011;75291;44.670;37.810;2024-02-21T04:27:01;36.67;;;15.27;;
75986;SDS011;75291;44.670;37.810;2024-02-21T04:28:08;37.50;;;14.35;;
75986;SDS011;75291;44.670;37.810;2024-02-21T04:29:11;42.58;;;16.25;;
75986;SDS011;75291;44.670;37.810;2024-02-21T04:30:15;36.75;;;14.15;;
75986;SDS011;75291;44.670;37.810;2024-02-21T04:31:19;37.00;;;15.00;;
75986;SDS011;75291;44.670;37.810;2024-02-21T04:32:23;31.42;;;14.70;;
75986;SDS011;75291;44.670;37.810;2024-02-21T04:33:28;35.88;;;14.68;;
75986;SDS011;75291;44.670;37.810;2024-02-21T04:34:31;36.47;;;13.80;;
75986;SDS011;75291;44.670;37.810;2024-02-21T04:35:38;34.38;;;14.20;;
75986;SDS011;75291;44.670;37.810;2024-02-21T04:36:44;38.10;;;16.08;;
75986;SDS011;75291;44.670;37.810;2024-02-21T04:37:48;36.15;;;15.15;;
75986;SDS011;75291;44.670;37.810;2024-02-21T04:38:54;37.72;;;16.63;;
75986;SDS011;75291;44.670;37.810;2024-02-21T04:39:57;32.80;;;14.45;;
75986;SDS011;75291;44.670;37.810;2024-02-21T04:41:01;34.78;;;14.35;;
75986;SDS011;75291;44.670;37.810;2024-02-21T04:42:05;32.70;;;14.40;;
75986;SDS011;75291;44.670;37.810;2024-02-21T04:43:16;36.17;;;15.60;;
75986;SDS011;75291;44.670;37.810;2024-02-21T04:44:19;33.78;;;14.10;;
75986;SDS011;75291;44.670;37.810;2024-02-21T04:45:25;30.60;;;13.27;;
75986;SDS011;75291;44.670;37.810;2024-02-21T04:46:29;31.63;;;13.30;;
75986;SDS011;75291;44.670;37.810;2024-02-21T04:47:35;30.10;;;13.25;;
75986;SDS011;75291;44.670;37.810;2024-02-21T04:48:41;26.73;;;12.88;;
75986;SDS011;75291;44.670;37.810;2024-02-21T04:50:25;27.05;;;12.60;;
75986;SDS011;75291;44.670;37.810;2024-02-21T04:51:30;26.55;;;11.90;;
75986;SDS011;75291;44.670;37.810;2024-02-21T04:52:36;25.10;;;11.55;;
75986;SDS011;75291;44.670;37.810;2024-02-21T04:53:41;27.15;;;12.07;;
75986;SDS011;75291;44.670;37.810;2024-02-21T04:54:45;30.02;;;12.80;;
75986;SDS011;75291;44.670;37.810;2024-02-21T04:55:48;24.90;;;11.38;;
75986;SDS011;75291;44.670;37.810;2024-02-21T04:56:52;26.70;;;11.70;;
75986;SDS011;75291;44.670;37.810;2024-02-21T04:57:58;25.67;;;12.88;;
75986;SDS011;75291;44.670;37.810;2024-02-21T04:59:02;22.38;;;11.75;;
75986;SDS011;75291;44.670;37.810;2024-02-21T05:00:05;18.95;;;9.48;;
75986;SDS011;75291;44.670;37.810;2024-02-21T05:01:09;20.33;;;10.60;;
75986;SDS011;75291;44.670;37.810;2024-02-21T05:02:13;26.48;;;12.45;;
75986;SDS011;75291;44.670;37.810;2024-02-21T05:03:17;27.00;;;12.90;;
75986;SDS011;75291;44.670;37.810;2024-02-21T05:04:20;22.65;;;11.32;;
75986;SDS011;75291;44.670;37.810;2024-02-21T05:05:24;24.55;;;10.77;;
75986;SDS011;75291;44.670;37.810;2024-02-21T05:06:28;25.17;;;11.30;;
75986;SDS011;75291;44.670;37.810;2024-02-21T05:07:34;23.13;;;11.05;;
75986;SDS011;75291;44.670;37.810;2024-02-21T05:08:38;22.58;;;11.02;;
75986;SDS011;75291;44.670;37.810;2024-02-21T05:09:44;21.83;;;10.38;;
75986;SDS011;75291;44.670;37.810;2024-02-21T05:10:48;19.65;;;10.00;;
75986;SDS011;75291;44.670;37.810;2024-02-21T05:11:51;20.42;;;10.45;;
75986;SDS011;75291;44.670;37.810;2024-02-21T05:12:54;21.98;;;10.27;;
75986;SDS011;75291;44.670;37.810;2024-02-21T05:13:57;20.95;;;9.65;;
75986;SDS011;75291;44.670;37.810;2024-02-21T05:15:01;20.23;;;10.48;;
75986;SDS011;75291;44.670;37.810;2024-02-21T05:16:05;20.83;;;9.68;;
75986;SDS011;75291;44.670;37.810;2024-02-21T05:17:09;21.00;;;10.48;;
75986;SDS011;75291;44.670;37.810;2024-02-21T05:18:13;19.50;;;9.85;;
75986;SDS011;75291;44.670;37.810;2024-02-21T05:19:17;22.63;;;10.45;;
75986;SDS011;75291;44.670;37.810;2024-02-21T05:20:20;24.35;;;11.15;;
75986;SDS011;75291;44.670;37.810;2024-02-21T05:21:24;21.20;;;11.05;;
75986;SDS011;75291;44.670;37.810;2024-02-21T05:22:28;21.20;;;10.40;;
75986;SDS011;75291;44.670;37.810;2024-02-21T05:23:31;21.38;;;11.25;;
75986;SDS011;75291;44.670;37.810;2024-02-21T05:24:36;23.85;;;10.98;;
75986;SDS011;75291;44.670;37.810;2024-02-21T05:25:39;20.92;;;10.48;;
75986;SDS011;75291;44.670;37.810;2024-02-21T05:26:42;21.35;;;10.25;;
75986;SDS011;75291;44.670;37.810;2024-02-21T05:27:47;20.73;;;10.60;;
75986;SDS011;75291;44.670;37.810;2024-02-21T05:28:51;23.35;;;12.02;;
75986;SDS011;75291;44.670;37.810;2024-02-21T05:29:55;22.95;;;10.98;;
75986;SDS011;75291;44.670;37.810;2024-02-21T05:30:58;23.58;;;10.88;;
75986;SDS011;75291;44.670;37.810;2024-02-21T05:32:01;21.27;;;10.50;;
75986;SDS011;75291;44.670;37.810;2024-02-21T05:33:05;19.58;;;9.80;;
75986;SDS011;75291;44.670;37.810;2024-02-21T05:34:09;21.65;;;9.98;;
75986;SDS011;75291;44.670;37.810;2024-02-21T05:35:14;18.20;;;9.25;;
75986;SDS011;75291;44.670;37.810;2024-02-21T05:36:18;23.27;;;10.10;;
75986;SDS011;75291;44.670;37.810;2024-02-21T05:37:22;21.15;;;10.75;;
75986;SDS011;75291;44.670;37.810;2024-02-21T05:38:26;22.00;;;10.80;;
75986;SDS011;75291;44.670;37.810;2024-02-21T05:39:29;21.08;;;10.05;;
75986;SDS011;75291;44.670;37.810;2024-02-21T05:40:32;22.67;;;10.95;;
75986;SDS011;75291;44.670;37.810;2024-02-21T05:41:36;22.15;;;10.40;;
75986;SDS011;75291;44.670;37.810;2024-02-21T05:42:40;19.63;;;10.45;;
75986;SDS011;75291;44.670;37.810;2024-02-21T05:43:43;21.40;;;11.00;;
75986;SDS011;75291;44.670;37.810;2024-02-21T05:44:46;20.00;;;11.00;;
75986;SDS011;75291;44.670;37.810;2024-02-21T05:45:50;19.00;;;10.02;;
75986;SDS011;75291;44.670;37.810;2024-02-21T05:46:53;20.40;;;9.55;;
75986;SDS011;75291;44.670;37.810;2024-02-21T05:47:56;18.15;;;9.70;;
75986;SDS011;75291;44.670;37.810;2024-02-21T05:49:02;20.30;;;9.65;;
75986;SDS011;75291;44.670;37.810;2024-02-21T05:50:06;20.77;;;10.30;;
75986;SDS011;75291;44.670;37.810;2024-02-21T05:51:09;17.73;;;9.45;;
75986;SDS011;75291;44.670;37.810;2024-02-21T05:52:13;21.17;;;10.10;;
75986;SDS011;75291;44.670;37.810;2024-02-21T05:53:20;19.48;;;9.88;;
75986;SDS011;75291;44.670;37.810;2024-02-21T05:54:25;21.13;;;10.20;;
75986;SDS011;75291;44.670;37.810;2024-02-21T05:55:30;20.70;;;9.68;;
75986;SDS011;75291;44.670;37.810;2024-02-21T05:56:35;21.88;;;10.85;;
75986;SDS011;75291;44.670;37.810;2024-02-21T05:57:39;22.67;;;11.27;;
75986;SDS011;75291;44.670;37.810;2024-02-21T05:58:43;20.40;;;10.32;;
75986;SDS011;75291;44.670;37.810;2024-02-21T05:59:47;21.20;;;10.43;;
75986;SDS011;75291;44.670;37.810;2024-02-21T06:00:55;20.00;;;10.30;;
75986;SDS011;75291;44.670;37.810;2024-02-21T06:01:59;25.40;;;9.38;;
75986;SDS011;75291;44.670;37.810;2024-02-21T06:03:07;20.92;;;9.73;;
75986;SDS011;75291;44.670;37.810;2024-02-21T06:04:13;24.23;;;10.07;;
75986;SDS011;75291;44.670;37.810;2024-02-21T06:05:20;21.10;;;10.65;;
75986;SDS011;75291;44.670;37.810;2024-02-21T06:06:24;21.38;;;10.85;;
75986;SDS011;75291;44.670;37.810;2024-02-21T06:07:28;17.58;;;9.32;;
75986;SDS011;75291;44.670;37.810;2024-02-21T06:08:34;22.33;;;10.57;;
75986;SDS011;75291;44.670;37.810;2024-02-21T06:09:37;19.63;;;10.30;;
75986;SDS011;75291;44.670;37.810;2024-02-21T06:10:40;22.13;;;9.73;;
75986;SDS011;75291;44.670;37.810;2024-02-21T06:11:44;18.25;;;9.25;;